sensor_id;sensor_type;location;lat;lon;timestamp;temperature;humidity
46217;DHT22;47258;59.424;13.482;2022-08-11T00:02:32;17.60;99.90
46217;DHT22;47258;59.424;13.482;2022-08-11T00:05:04;17.60;99.90
46217;DHT22;47258;59.424;13.482;2022-08-11T00:07:32;17.50;99.90
46217;DHT22;47258;59.424;13.482;2022-08-11T00:09:59;17.50;99.90
46217;DHT22;47258;59.424;13.482;2022-08-11T00:12:27;17.50;99.90
46217;DHT22;47258;59.424;13.482;2022-08-11T00:14:57;17.40;99.90
46217;DHT22;47258;59.424;13.482;2022-08-11T00:17:30;17.40;99.90
46217;DHT22;47258;59.424;13.482;2022-08-11T00:20:07;17.40;99.90
46217;DHT22;47258;59.424;13.482;2022-08-11T00:22:37;17.40;99.90
46217;DHT22;47258;59.424;13.482;2022-08-11T00:25:09;17.40;99.90
46217;DHT22;47258;59.424;13.482;2022-08-11T00:27:38;17.30;99.90
46217;DHT22;47258;59.424;13.482;2022-08-11T00:30:10;17.30;99.90
46217;DHT22;47258;59.424;13.482;2022-08-11T00:32:40;17.30;99.90
46217;DHT22;47258;59.424;13.482;2022-08-11T00:35:12;17.30;99.90
46217;DHT22;47258;59.424;13.482;2022-08-11T00:37:44;17.30;99.90
46217;DHT22;47258;59.424;13.482;2022-08-11T00:40:18;17.20;99.90
46217;DHT22;47258;59.424;13.482;2022-08-11T00:42:57;17.20;99.90
46217;DHT22;47258;59.424;13.482;2022-08-11T00:45:33;17.30;99.90
46217;DHT22;47258;59.424;13.482;2022-08-11T00:48:09;17.30;99.90
46217;DHT22;47258;59.424;13.482;2022-08-11T00:50:44;17.20;99.90
46217;DHT22;47258;59.424;13.482;2022-08-11T00:53:32;17.20;99.90
46217;DHT22;47258;59.424;13.482;2022-08-11T00:56:18;17.20;99.90
46217;DHT22;47258;59.424;13.482;2022-08-11T00:59:17;17.10;99.90
46217;DHT22;47258;59.424;13.482;2022-08-11T01:02:11;17.10;99.90
46217;DHT22;47258;59.424;13.482;2022-08-11T01:05:23;17.10;99.90
46217;DHT22;47258;59.424;13.482;2022-08-11T01:08:29;17.10;99.90
46217;DHT22;47258;59.424;13.482;2022-08-11T01:11:33;17.10;99.90
46217;DHT22;47258;59.424;13.482;2022-08-11T01:14:30;17.10;99.90
46217;DHT22;47258;59.424;13.482;2022-08-11T01:17:41;17.00;99.90
46217;DHT22;47258;59.424;13.482;2022-08-11T01:20:45;17.00;99.90
46217;DHT22;47258;59.424;13.482;2022-08-11T01:27:06;16.90;99.90
46217;DHT22;47258;59.424;13.482;2022-08-11T01:33:07;16.90;99.90
46217;DHT22;47258;59.424;13.482;2022-08-11T01:36:12;16.80;99.90
46217;DHT22;47258;59.424;13.482;2022-08-11T01:39:31;16.80;99.90
46217;DHT22;47258;59.424;13.482;2022-08-11T01:42:25;16.80;99.90
46217;DHT22;47258;59.424;13.482;2022-08-11T01:45:28;16.70;99.90
46217;DHT22;47258;59.424;13.482;2022-08-11T01:48:02;16.70;99.90
46217;DHT22;47258;59.424;13.482;2022-08-11T01:50:49;16.70;99.90
46217;DHT22;47258;59.424;13.482;2022-08-11T01:53:29;16.70;99.90
46217;DHT22;47258;59.424;13.482;2022-08-11T01:56:09;16.60;99.90
46217;DHT22;47258;59.424;13.482;2022-08-11T01:58:49;16.60;99.90
46217;DHT22;47258;59.424;13.482;2022-08-11T02:01:31;16.60;99.90
46217;DHT22;47258;59.424;13.482;2022-08-11T02:04:11;16.60;99.90
46217;DHT22;47258;59.424;13.482;2022-08-11T02:06:49;16.60;99.90
46217;DHT22;47258;59.424;13.482;2022-08-11T02:09:44;16.60;99.90
46217;DHT22;47258;59.424;13.482;2022-08-11T02:12:31;16.50;99.90
46217;DHT22;47258;59.424;13.482;2022-08-11T02:15:10;16.50;99.90
46217;DHT22;47258;59.424;13.482;2022-08-11T02:17:48;16.50;99.90
46217;DHT22;47258;59.424;13.482;2022-08-11T02:20:22;16.40;99.90
46217;DHT22;47258;59.424;13.482;2022-08-11T02:23:19;16.40;99.90
46217;DHT22;47258;59.424;13.482;2022-08-11T02:26:11;16.30;99.90
46217;DHT22;47258;59.424;13.482;2022-08-11T02:29:02;16.30;99.90
46217;DHT22;47258;59.424;13.482;2022-08-11T02:31:41;16.30;99.90
46217;DHT22;47258;59.424;13.482;2022-08-11T02:34:37;16.30;99.90
46217;DHT22;47258;59.424;13.482;2022-08-11T02:37:15;16.20;99.90
46217;DHT22;47258;59.424;13.482;2022-08-11T02:39:51;16.20;99.90
46217;DHT22;47258;59.424;13.482;2022-08-11T02:42:29;16.20;99.90
46217;DHT22;47258;59.424;13.482;2022-08-11T02:45:15;16.20;99.90
46217;DHT22;47258;59.424;13.482;2022-08-11T02:47:53;16.10;99.90
46217;DHT22;47258;59.424;13.482;2022-08-11T02:50:52;16.00;99.90
46217;DHT22;47258;59.424;13.482;2022-08-11T02:53:42;15.90;99.90
46217;DHT22;47258;59.424;13.482;2022-08-11T02:56:15;15.90;99.90
46217;DHT22;47258;59.424;13.482;2022-08-11T02:58:53;15.90;99.90
46217;DHT22;47258;59.424;13.482;2022-08-11T03:01:41;15.90;99.90
46217;DHT22;47258;59.424;13.482;2022-08-11T03:04:17;15.80;99.90
46217;DHT22;47258;59.424;13.482;2022-08-11T03:06:51;15.80;99.90
46217;DHT22;47258;59.424;13.482;2022-08-11T03:09:43;15.80;99.90
46217;DHT22;47258;59.424;13.482;2022-08-11T03:12:16;15.70;99.90
46217;DHT22;47258;59.424;13.482;2022-08-11T03:15:11;15.70;99.90
46217;DHT22;47258;59.424;13.482;2022-08-11T03:18:24;15.70;99.90
46217;DHT22;47258;59.424;13.482;2022-08-11T03:21:01;15.60;99.90
46217;DHT22;47258;59.424;13.482;2022-08-11T03:23:36;15.60;99.90
46217;DHT22;47258;59.424;13.482;2022-08-11T03:26:09;15.60;99.90
46217;DHT22;47258;59.424;13.482;2022-08-11T03:28:44;15.60;99.90
46217;DHT22;47258;59.424;13.482;2022-08-11T03:31:24;15.50;99.90
46217;DHT22;47258;59.424;13.482;2022-08-11T03:33:56;15.50;99.90
46217;DHT22;47258;59.424;13.482;2022-08-11T03:36:58;15.40;99.90
46217;DHT22;47258;59.424;13.482;2022-08-11T03:39:41;15.40;99.90
46217;DHT22;47258;59.424;13.482;2022-08-11T03:42:27;15.30;99.90
46217;DHT22;47258;59.424;13.482;2022-08-11T03:45:04;15.30;99.90
46217;DHT22;47258;59.424;13.482;2022-08-11T03:47:52;15.30;99.90
46217;DHT22;47258;59.424;13.482;2022-08-11T03:50:32;15.30;99.90
46217;DHT22;47258;59.424;13.482;2022-08-11T03:53:13;15.30;99.90
46217;DHT22;47258;59.424;13.482;2022-08-11T03:56:05;15.20;99.90
46217;DHT22;47258;59.424;13.482;2022-08-11T03:59:08;15.20;99.90
46217;DHT22;47258;59.424;13.482;2022-08-11T04:02:03;15.10;99.90
46217;DHT22;47258;59.424;13.482;2022-08-11T04:05:05;15.10;99.90
46217;DHT22;47258;59.424;13.482;2022-08-11T04:14:41;15.20;99.90
46217;DHT22;47258;59.424;13.482;2022-08-11T04:21:10;15.20;99.90
46217;DHT22;47258;59.424;13.482;2022-08-11T04:24:12;15.10;99.90
46217;DHT22;47258;59.424;13.482;2022-08-11T04:27:12;15.10;99.90
46217;DHT22;47258;59.424;13.482;2022-08-11T04:29:56;15.20;99.90
46217;DHT22;47258;59.424;13.482;2022-08-11T04:35:45;15.20;99.90
46217;DHT22;47258;59.424;13.482;2022-08-11T04:45:09;15.30;99.90
46217;DHT22;47258;59.424;13.482;2022-08-11T04:47:52;15.40;99.90
46217;DHT22;47258;59.424;13.482;2022-08-11T04:50:55;15.40;99.90
46217;DHT22;47258;59.424;13.482;2022-08-11T04:53:53;15.50;99.90
46217;DHT22;47258;59.424;13.482;2022-08-11T04:56:43;15.50;99.90
46217;DHT22;47258;59.424;13.482;2022-08-11T05:00:00;15.60;99.90
46217;DHT22;47258;59.424;13.482;2022-08-11T05:03:19;15.70;99.90
46217;DHT22;47258;59.424;13.482;2022-08-11T05:06:22;15.70;99.90
46217;DHT22;47258;59.424;13.482;2022-08-11T05:12:24;15.90;99.90
46217;DHT22;47258;59.424;13.482;2022-08-11T05:14:55;16.00;99.90
46217;DHT22;47258;59.424;13.482;2022-08-11T05:17:44;16.00;99.90
46217;DHT22;47258;59.424;13.482;2022-08-11T05:20:29;16.10;99.90
46217;DHT22;47258;59.424;13.482;2022-08-11T05:23:14;16.20;99.90
46217;DHT22;47258;59.424;13.482;2022-08-11T05:26:01;16.20;99.90
46217;DHT22;47258;59.424;13.482;2022-08-11T05:28:53;16.30;99.90
46217;DHT22;47258;59.424;13.482;2022-08-11T05:31:42;16.30;99.90
46217;DHT22;47258;59.424;13.482;2022-08-11T05:34:35;16.40;99.90
46217;DHT22;47258;59.424;13.482;2022-08-11T05:37:22;16.40;99.90
46217;DHT22;47258;59.424;13.482;2022-08-11T05:39:56;16.50;99.90
46217;DHT22;47258;59.424;13.482;2022-08-11T05:42:49;16.60;99.90
46217;DHT22;47258;59.424;13.482;2022-08-11T05:45:35;16.60;99.90
46217;DHT22;47258;59.424;13.482;2022-08-11T05:48:21;16.70;99.90
46217;DHT22;47258;59.424;13.482;2022-08-11T05:51:06;16.70;99.90
46217;DHT22;47258;59.424;13.482;2022-08-11T05:53:52;16.80;99.90
46217;DHT22;47258;59.424;13.482;2022-08-11T05:56:42;16.80;99.90
46217;DHT22;47258;59.424;13.482;2022-08-11T05:59:15;16.90;99.90
46217;DHT22;47258;59.424;13.482;2022-08-11T06:01:44;17.00;99.90
46217;DHT22;47258;59.424;13.482;2022-08-11T06:04:16;17.10;99.90
46217;DHT22;47258;59.424;13.482;2022-08-11T06:06:49;17.20;99.90
46217;DHT22;47258;59.424;13.482;2022-08-11T06:09:22;17.20;99.90
46217;DHT22;47258;59.424;13.482;2022-08-11T06:11:50;17.30;99.90
46217;DHT22;47258;59.424;13.482;2022-08-11T06:14:19;17.40;99.90
46217;DHT22;47258;59.424;13.482;2022-08-11T06:16:49;17.50;99.90
46217;DHT22;47258;59.424;13.482;2022-08-11T06:19:20;17.50;99.90
46217;DHT22;47258;59.424;13.482;2022-08-11T06:21:49;17.60;99.90
46217;DHT22;47258;59.424;13.482;2022-08-11T06:24:18;17.70;99.90
46217;DHT22;47258;59.424;13.482;2022-08-11T06:26:50;17.80;99.90
46217;DHT22;47258;59.424;13.482;2022-08-11T06:29:18;17.90;99.90
46217;DHT22;47258;59.424;13.482;2022-08-11T06:31:53;18.00;99.90
46217;DHT22;47258;59.424;13.482;2022-08-11T06:34:39;18.10;99.90
46217;DHT22;47258;59.424;13.482;2022-08-11T06:37:19;18.30;99.90
46217;DHT22;47258;59.424;13.482;2022-08-11T06:40:00;18.70;99.90
46217;DHT22;47258;59.424;13.482;2022-08-11T06:42:57;19.10;99.90
46217;DHT22;47258;59.424;13.482;2022-08-11T06:45:31;19.70;99.90
46217;DHT22;47258;59.424;13.482;2022-08-11T06:48:01;20.10;99.90
46217;DHT22;47258;59.424;13.482;2022-08-11T06:50:31;20.50;99.90
46217;DHT22;47258;59.424;13.482;2022-08-11T06:53:18;21.00;99.90
46217;DHT22;47258;59.424;13.482;2022-08-11T06:55:47;21.40;99.90
46217;DHT22;47258;59.424;13.482;2022-08-11T06:58:34;21.80;99.90
46217;DHT22;47258;59.424;13.482;2022-08-11T07:01:28;22.20;99.90
46217;DHT22;47258;59.424;13.482;2022-08-11T07:04:04;22.60;99.90
46217;DHT22;47258;59.424;13.482;2022-08-11T07:06:47;23.00;99.90
46217;DHT22;47258;59.424;13.482;2022-08-11T07:10:16;23.30;99.90
46217;DHT22;47258;59.424;13.482;2022-08-11T07:13:03;23.70;99.90
46217;DHT22;47258;59.424;13.482;2022-08-11T07:15:50;24.00;99.90
46217;DHT22;47258;59.424;13.482;2022-08-11T07:18:21;24.30;99.90
46217;DHT22;47258;59.424;13.482;2022-08-11T07:21:13;24.50;99.90
46217;DHT22;47258;59.424;13.482;2022-08-11T07:24:00;24.60;99.90
46217;DHT22;47258;59.424;13.482;2022-08-11T07:26:50;24.80;99.90
46217;DHT22;47258;59.424;13.482;2022-08-11T07:29:36;25.00;99.90
46217;DHT22;47258;59.424;13.482;2022-08-11T07:32:16;25.10;99.90
46217;DHT22;47258;59.424;13.482;2022-08-11T07:34:51;25.30;99.90
46217;DHT22;47258;59.424;13.482;2022-08-11T07:37:23;25.50;99.90
46217;DHT22;47258;59.424;13.482;2022-08-11T07:39:52;25.70;99.90
46217;DHT22;47258;59.424;13.482;2022-08-11T07:42:25;25.90;99.90
46217;DHT22;47258;59.424;13.482;2022-08-11T07:44:54;25.90;99.90
46217;DHT22;47258;59.424;13.482;2022-08-11T07:47:40;25.80;99.90
46217;DHT22;47258;59.424;13.482;2022-08-11T07:50:26;25.70;99.90
46217;DHT22;47258;59.424;13.482;2022-08-11T07:53:13;25.60;99.90
46217;DHT22;47258;59.424;13.482;2022-08-11T07:55:42;25.40;99.90
46217;DHT22;47258;59.424;13.482;2022-08-11T07:58:09;25.20;99.90
46217;DHT22;47258;59.424;13.482;2022-08-11T08:00:56;25.00;99.90
46217;DHT22;47258;59.424;13.482;2022-08-11T08:03:42;25.00;99.90
46217;DHT22;47258;59.424;13.482;2022-08-11T08:06:28;25.00;99.90
46217;DHT22;47258;59.424;13.482;2022-08-11T08:09:18;25.10;99.90
46217;DHT22;47258;59.424;13.482;2022-08-11T08:12:04;25.40;99.90
46217;DHT22;47258;59.424;13.482;2022-08-11T08:14:49;25.90;99.90
46217;DHT22;47258;59.424;13.482;2022-08-11T08:17:34;26.50;99.90
46217;DHT22;47258;59.424;13.482;2022-08-11T08:20:19;27.20;99.90
46217;DHT22;47258;59.424;13.482;2022-08-11T08:22:50;27.80;99.90
46217;DHT22;47258;59.424;13.482;2022-08-11T08:25:24;28.20;99.90
46217;DHT22;47258;59.424;13.482;2022-08-11T08:27:52;28.70;99.90
46217;DHT22;47258;59.424;13.482;2022-08-11T08:30:21;29.10;99.90
46217;DHT22;47258;59.424;13.482;2022-08-11T08:33:07;29.40;99.90
46217;DHT22;47258;59.424;13.482;2022-08-11T08:35:35;29.90;99.90
46217;DHT22;47258;59.424;13.482;2022-08-11T08:38:03;30.20;99.90
46217;DHT22;47258;59.424;13.482;2022-08-11T08:40:32;30.50;99.90
46217;DHT22;47258;59.424;13.482;2022-08-11T08:43:06;30.80;99.90
46217;DHT22;47258;59.424;13.482;2022-08-11T08:45:36;31.00;99.90
46217;DHT22;47258;59.424;13.482;2022-08-11T08:48:07;31.20;99.90
46217;DHT22;47258;59.424;13.482;2022-08-11T08:50:39;31.30;99.90
46217;DHT22;47258;59.424;13.482;2022-08-11T08:53:28;31.40;98.80
46217;DHT22;47258;59.424;13.482;2022-08-11T08:55:59;31.30;98.20
46217;DHT22;47258;59.424;13.482;2022-08-11T08:58:29;30.90;97.50
46217;DHT22;47258;59.424;13.482;2022-08-11T09:00:57;30.50;96.90
46217;DHT22;47258;59.424;13.482;2022-08-11T09:03:25;30.20;97.50
46217;DHT22;47258;59.424;13.482;2022-08-11T09:05:53;29.70;97.30
46217;DHT22;47258;59.424;13.482;2022-08-11T09:08:22;29.30;97.80
46217;DHT22;47258;59.424;13.482;2022-08-11T09:10:50;29.00;97.30
46217;DHT22;47258;59.424;13.482;2022-08-11T09:13:34;28.70;97.90
46217;DHT22;47258;59.424;13.482;2022-08-11T09:16:01;28.40;98.70
46217;DHT22;47258;59.424;13.482;2022-08-11T09:18:29;28.20;99.30
46217;DHT22;47258;59.424;13.482;2022-08-11T09:20:57;28.00;98.80
46217;DHT22;47258;59.424;13.482;2022-08-11T09:23:25;27.80;98.80
46217;DHT22;47258;59.424;13.482;2022-08-11T09:26:10;27.60;99.10
46217;DHT22;47258;59.424;13.482;2022-08-11T09:29:11;27.40;99.30
46217;DHT22;47258;59.424;13.482;2022-08-11T09:31:38;27.20;99.80
46217;DHT22;47258;59.424;13.482;2022-08-11T09:34:06;27.10;99.90
46217;DHT22;47258;59.424;13.482;2022-08-11T09:36:33;27.00;99.90
46217;DHT22;47258;59.424;13.482;2022-08-11T09:39:19;27.00;99.90
46217;DHT22;47258;59.424;13.482;2022-08-11T09:42:04;27.00;99.90
46217;DHT22;47258;59.424;13.482;2022-08-11T09:44:33;26.90;99.90
46217;DHT22;47258;59.424;13.482;2022-08-11T09:47:20;26.90;99.90
46217;DHT22;47258;59.424;13.482;2022-08-11T09:49:50;26.80;99.90
46217;DHT22;47258;59.424;13.482;2022-08-11T09:52:18;26.80;99.90
46217;DHT22;47258;59.424;13.482;2022-08-11T09:54:47;26.80;99.90
46217;DHT22;47258;59.424;13.482;2022-08-11T09:57:18;26.70;99.90
46217;DHT22;47258;59.424;13.482;2022-08-11T10:00:06;26.70;99.90
46217;DHT22;47258;59.424;13.482;2022-08-11T10:02:34;26.50;99.90
46217;DHT22;47258;59.424;13.482;2022-08-11T10:05:06;26.50;99.80
46217;DHT22;47258;59.424;13.482;2022-08-11T10:07:52;26.50;99.90
46217;DHT22;47258;59.424;13.482;2022-08-11T10:10:20;26.50;99.90
46217;DHT22;47258;59.424;13.482;2022-08-11T10:12:51;26.50;99.90
46217;DHT22;47258;59.424;13.482;2022-08-11T10:15:21;26.40;99.90
46217;DHT22;47258;59.424;13.482;2022-08-11T10:18:04;26.50;99.90
46217;DHT22;47258;59.424;13.482;2022-08-11T10:20:51;26.50;99.90
46217;DHT22;47258;59.424;13.482;2022-08-11T10:23:20;26.50;99.90
46217;DHT22;47258;59.424;13.482;2022-08-11T10:26:06;26.60;99.90
46217;DHT22;47258;59.424;13.482;2022-08-11T10:28:52;26.50;99.90
46217;DHT22;47258;59.424;13.482;2022-08-11T10:31:22;26.60;99.90
46217;DHT22;47258;59.424;13.482;2022-08-11T10:34:07;26.60;99.90
46217;DHT22;47258;59.424;13.482;2022-08-11T10:36:38;26.60;99.90
46217;DHT22;47258;59.424;13.482;2022-08-11T10:39:13;26.50;99.90
46217;DHT22;47258;59.424;13.482;2022-08-11T10:41:42;26.60;99.90
46217;DHT22;47258;59.424;13.482;2022-08-11T10:44:27;26.60;99.60
46217;DHT22;47258;59.424;13.482;2022-08-11T10:46:56;26.60;99.90
46217;DHT22;47258;59.424;13.482;2022-08-11T10:49:41;26.60;99.90
46217;DHT22;47258;59.424;13.482;2022-08-11T10:52:09;26.70;99.90
46217;DHT22;47258;59.424;13.482;2022-08-11T10:54:53;26.70;99.90
46217;DHT22;47258;59.424;13.482;2022-08-11T10:57:38;26.80;99.90
46217;DHT22;47258;59.424;13.482;2022-08-11T11:00:23;26.80;99.90
46217;DHT22;47258;59.424;13.482;2022-08-11T11:02:52;26.80;99.50
46217;DHT22;47258;59.424;13.482;2022-08-11T11:05:23;26.80;99.90
46217;DHT22;47258;59.424;13.482;2022-08-11T11:07:55;26.80;99.30
46217;DHT22;47258;59.424;13.482;2022-08-11T11:10:25;26.80;99.30
46217;DHT22;47258;59.424;13.482;2022-08-11T11:12:56;26.80;99.40
46217;DHT22;47258;59.424;13.482;2022-08-11T11:15:44;26.80;99.00
46217;DHT22;47258;59.424;13.482;2022-08-11T11:18:33;26.80;99.10
46217;DHT22;47258;59.424;13.482;2022-08-11T11:21:05;26.80;99.70
46217;DHT22;47258;59.424;13.482;2022-08-11T11:23:37;26.90;99.30
46217;DHT22;47258;59.424;13.482;2022-08-11T11:26:23;26.90;99.50
46217;DHT22;47258;59.424;13.482;2022-08-11T11:29:26;27.00;99.40
46217;DHT22;47258;59.424;13.482;2022-08-11T11:32:10;27.10;98.10
46217;DHT22;47258;59.424;13.482;2022-08-11T11:35:10;27.00;97.80
46217;DHT22;47258;59.424;13.482;2022-08-11T11:37:40;27.10;98.90
46217;DHT22;47258;59.424;13.482;2022-08-11T11:40:09;27.10;98.60
46217;DHT22;47258;59.424;13.482;2022-08-11T11:42:38;27.20;98.80
46217;DHT22;47258;59.424;13.482;2022-08-11T11:45:08;27.20;97.80
46217;DHT22;47258;59.424;13.482;2022-08-11T11:47:36;27.20;97.40
46217;DHT22;47258;59.424;13.482;2022-08-11T11:50:06;27.20;97.80
46217;DHT22;47258;59.424;13.482;2022-08-11T11:52:34;27.10;97.60
46217;DHT22;47258;59.424;13.482;2022-08-11T11:55:04;27.20;97.10
46217;DHT22;47258;59.424;13.482;2022-08-11T11:57:33;27.30;97.20
46217;DHT22;47258;59.424;13.482;2022-08-11T12:00:18;27.20;97.40
46217;DHT22;47258;59.424;13.482;2022-08-11T12:03:07;27.20;97.50
46217;DHT22;47258;59.424;13.482;2022-08-11T12:05:37;27.20;98.30
46217;DHT22;47258;59.424;13.482;2022-08-11T12:08:05;27.20;98.30
46217;DHT22;47258;59.424;13.482;2022-08-11T12:10:44;27.30;98.00
46217;DHT22;47258;59.424;13.482;2022-08-11T12:13:12;27.30;97.90
46217;DHT22;47258;59.424;13.482;2022-08-11T12:15:57;27.30;98.40
46217;DHT22;47258;59.424;13.482;2022-08-11T12:18:30;27.40;98.00
46217;DHT22;47258;59.424;13.482;2022-08-11T12:20:58;27.30;97.70
46217;DHT22;47258;59.424;13.482;2022-08-11T12:23:26;27.30;98.00
46217;DHT22;47258;59.424;13.482;2022-08-11T12:26:13;27.30;98.20
46217;DHT22;47258;59.424;13.482;2022-08-11T12:28:58;27.30;97.80
46217;DHT22;47258;59.424;13.482;2022-08-11T12:31:28;27.30;97.40
46217;DHT22;47258;59.424;13.482;2022-08-11T12:33:59;27.30;97.50
46217;DHT22;47258;59.424;13.482;2022-08-11T12:36:28;27.20;97.20
46217;DHT22;47258;59.424;13.482;2022-08-11T12:38:58;27.20;98.20
46217;DHT22;47258;59.424;13.482;2022-08-11T12:41:25;27.30;98.10
46217;DHT22;47258;59.424;13.482;2022-08-11T12:44:11;27.30;98.20
46217;DHT22;47258;59.424;13.482;2022-08-11T12:46:58;27.30;98.00
46217;DHT22;47258;59.424;13.482;2022-08-11T12:49:25;27.40;97.70
46217;DHT22;47258;59.424;13.482;2022-08-11T12:52:18;27.30;98.00
46217;DHT22;47258;59.424;13.482;2022-08-11T12:54:54;27.30;98.70
46217;DHT22;47258;59.424;13.482;2022-08-11T12:57:28;27.40;99.00
46217;DHT22;47258;59.424;13.482;2022-08-11T13:00:15;27.40;98.90
46217;DHT22;47258;59.424;13.482;2022-08-11T13:03:00;27.50;97.70
46217;DHT22;47258;59.424;13.482;2022-08-11T13:05:46;27.50;96.80
46217;DHT22;47258;59.424;13.482;2022-08-11T13:08:15;27.50;97.70
46217;DHT22;47258;59.424;13.482;2022-08-11T13:10:44;27.50;96.90
46217;DHT22;47258;59.424;13.482;2022-08-11T13:13:30;27.60;96.80
46217;DHT22;47258;59.424;13.482;2022-08-11T13:15:58;27.50;96.00
46217;DHT22;47258;59.424;13.482;2022-08-11T13:18:26;27.50;96.90
46217;DHT22;47258;59.424;13.482;2022-08-11T13:20:53;27.50;96.00
46217;DHT22;47258;59.424;13.482;2022-08-11T13:23:23;27.50;96.40
46217;DHT22;47258;59.424;13.482;2022-08-11T13:25:52;27.60;96.50
46217;DHT22;47258;59.424;13.482;2022-08-11T13:28:20;27.70;97.30
46217;DHT22;47258;59.424;13.482;2022-08-11T13:30:49;27.70;96.30
46217;DHT22;47258;59.424;13.482;2022-08-11T13:33:34;27.70;96.10
46217;DHT22;47258;59.424;13.482;2022-08-11T13:36:03;27.80;97.10
46217;DHT22;47258;59.424;13.482;2022-08-11T13:38:32;27.80;96.40
46217;DHT22;47258;59.424;13.482;2022-08-11T13:41:00;27.80;95.20
46217;DHT22;47258;59.424;13.482;2022-08-11T13:43:48;27.80;95.80
46217;DHT22;47258;59.424;13.482;2022-08-11T13:46:17;27.80;94.70
46217;DHT22;47258;59.424;13.482;2022-08-11T13:48:48;27.70;94.90
46217;DHT22;47258;59.424;13.482;2022-08-11T13:51:15;27.70;94.90
46217;DHT22;47258;59.424;13.482;2022-08-11T13:54:02;27.70;95.80
46217;DHT22;47258;59.424;13.482;2022-08-11T13:56:31;27.70;94.80
46217;DHT22;47258;59.424;13.482;2022-08-11T13:59:01;27.70;94.60
46217;DHT22;47258;59.424;13.482;2022-08-11T14:01:31;27.70;95.50
46217;DHT22;47258;59.424;13.482;2022-08-11T14:04:05;27.70;95.40
46217;DHT22;47258;59.424;13.482;2022-08-11T14:06:34;27.60;94.50
46217;DHT22;47258;59.424;13.482;2022-08-11T14:09:07;27.60;94.50
46217;DHT22;47258;59.424;13.482;2022-08-11T14:11:36;27.60;94.50
46217;DHT22;47258;59.424;13.482;2022-08-11T14:14:25;27.60;94.30
46217;DHT22;47258;59.424;13.482;2022-08-11T14:16:55;27.60;95.00
46217;DHT22;47258;59.424;13.482;2022-08-11T14:19:24;27.60;94.70
46217;DHT22;47258;59.424;13.482;2022-08-11T14:21:53;27.60;94.10
46217;DHT22;47258;59.424;13.482;2022-08-11T14:24:35;27.60;93.90
46217;DHT22;47258;59.424;13.482;2022-08-11T14:27:03;27.60;94.60
46217;DHT22;47258;59.424;13.482;2022-08-11T14:29:31;27.50;94.50
46217;DHT22;47258;59.424;13.482;2022-08-11T14:32:05;27.50;94.60
46217;DHT22;47258;59.424;13.482;2022-08-11T14:34:34;27.50;95.00
46217;DHT22;47258;59.424;13.482;2022-08-11T14:37:04;27.50;95.40
46217;DHT22;47258;59.424;13.482;2022-08-11T14:39:35;27.50;95.60
46217;DHT22;47258;59.424;13.482;2022-08-11T14:42:06;27.50;95.20
46217;DHT22;47258;59.424;13.482;2022-08-11T14:44:52;27.40;95.00
46217;DHT22;47258;59.424;13.482;2022-08-11T14:47:51;27.40;94.70
46217;DHT22;47258;59.424;13.482;2022-08-11T14:50:22;27.40;94.30
46217;DHT22;47258;59.424;13.482;2022-08-11T14:52:51;27.40;93.50
46217;DHT22;47258;59.424;13.482;2022-08-11T14:55:22;27.40;93.80
46217;DHT22;47258;59.424;13.482;2022-08-11T14:58:08;27.30;94.50
46217;DHT22;47258;59.424;13.482;2022-08-11T15:00:37;27.30;94.90
46217;DHT22;47258;59.424;13.482;2022-08-11T15:03:07;27.30;94.50
46217;DHT22;47258;59.424;13.482;2022-08-11T15:05:35;27.30;94.10
46217;DHT22;47258;59.424;13.482;2022-08-11T15:08:05;27.30;94.40
46217;DHT22;47258;59.424;13.482;2022-08-11T15:10:34;27.30;94.20
46217;DHT22;47258;59.424;13.482;2022-08-11T15:13:01;27.30;93.50
46217;DHT22;47258;59.424;13.482;2022-08-11T15:15:29;27.20;93.30
46217;DHT22;47258;59.424;13.482;2022-08-11T15:18:14;27.20;93.10
46217;DHT22;47258;59.424;13.482;2022-08-11T15:20:43;27.20;93.20
46217;DHT22;47258;59.424;13.482;2022-08-11T15:23:28;27.20;93.00
46217;DHT22;47258;59.424;13.482;2022-08-11T15:26:17;27.20;93.70
46217;DHT22;47258;59.424;13.482;2022-08-11T15:28:46;27.10;93.80
46217;DHT22;47258;59.424;13.482;2022-08-11T15:31:31;27.10;94.30
46217;DHT22;47258;59.424;13.482;2022-08-11T15:34:18;27.20;94.00
46217;DHT22;47258;59.424;13.482;2022-08-11T15:37:07;27.20;94.30
46217;DHT22;47258;59.424;13.482;2022-08-11T15:40:00;27.20;94.10
46217;DHT22;47258;59.424;13.482;2022-08-11T15:42:50;27.10;94.50
46217;DHT22;47258;59.424;13.482;2022-08-11T15:45:39;27.10;93.70
46217;DHT22;47258;59.424;13.482;2022-08-11T15:48:26;27.10;92.80
46217;DHT22;47258;59.424;13.482;2022-08-11T15:50:56;27.10;93.80
46217;DHT22;47258;59.424;13.482;2022-08-11T15:53:31;27.10;93.30
46217;DHT22;47258;59.424;13.482;2022-08-11T15:55:59;27.10;93.20
46217;DHT22;47258;59.424;13.482;2022-08-11T15:58:33;27.00;93.70
46217;DHT22;47258;59.424;13.482;2022-08-11T16:01:20;27.00;93.30
46217;DHT22;47258;59.424;13.482;2022-08-11T16:04:09;26.90;93.50
46217;DHT22;47258;59.424;13.482;2022-08-11T16:06:53;26.90;92.00
46217;DHT22;47258;59.424;13.482;2022-08-11T16:09:25;26.80;92.90
46217;DHT22;47258;59.424;13.482;2022-08-11T16:11:56;26.80;92.90
46217;DHT22;47258;59.424;13.482;2022-08-11T16:14:28;26.80;93.70
46217;DHT22;47258;59.424;13.482;2022-08-11T16:17:15;26.80;92.70
46217;DHT22;47258;59.424;13.482;2022-08-11T16:19:47;26.80;93.30
46217;DHT22;47258;59.424;13.482;2022-08-11T16:22:19;26.70;92.60
46217;DHT22;47258;59.424;13.482;2022-08-11T16:24:57;26.70;92.70
46217;DHT22;47258;59.424;13.482;2022-08-11T16:27:26;26.60;92.80
46217;DHT22;47258;59.424;13.482;2022-08-11T16:29:55;26.60;93.40
46217;DHT22;47258;59.424;13.482;2022-08-11T16:32:23;26.60;93.40
46217;DHT22;47258;59.424;13.482;2022-08-11T16:34:54;26.60;94.00
46217;DHT22;47258;59.424;13.482;2022-08-11T16:37:40;26.60;93.40
46217;DHT22;47258;59.424;13.482;2022-08-11T16:40:27;26.50;93.60
46217;DHT22;47258;59.424;13.482;2022-08-11T16:42:56;26.50;93.00
46217;DHT22;47258;59.424;13.482;2022-08-11T16:45:44;26.40;93.10
46217;DHT22;47258;59.424;13.482;2022-08-11T16:48:31;26.40;92.80
46217;DHT22;47258;59.424;13.482;2022-08-11T16:50:59;26.30;92.90
46217;DHT22;47258;59.424;13.482;2022-08-11T16:53:28;26.30;92.80
46217;DHT22;47258;59.424;13.482;2022-08-11T16:55:58;26.20;93.20
46217;DHT22;47258;59.424;13.482;2022-08-11T16:58:29;26.20;93.60
46217;DHT22;47258;59.424;13.482;2022-08-11T17:01:19;26.20;93.40